sensor_id;sensor_type;location;lat;lon;timestamp;temperature;humidity
29031;DHT22;16122;50.236;11.734;2023-09-19T00:01:33;19.80;83.80
29031;DHT22;16122;50.236;11.734;2023-09-19T00:04:00;19.90;83.90
29031;DHT22;16122;50.236;11.734;2023-09-19T00:06:29;19.80;83.80
29031;DHT22;16122;50.236;11.734;2023-09-19T00:08:57;19.90;83.80
29031;DHT22;16122;50.236;11.734;2023-09-19T00:11:25;19.80;83.80
29031;DHT22;16122;50.236;11.734;2023-09-19T00:13:52;19.80;83.70
29031;DHT22;16122;50.236;11.734;2023-09-19T00:16:18;19.80;83.80
29031;DHT22;16122;50.236;11.734;2023-09-19T00:18:45;19.80;83.80
29031;DHT22;16122;50.236;11.734;2023-09-19T00:21:10;19.80;83.80
29031;DHT22;16122;50.236;11.734;2023-09-19T00:23:37;19.80;83.90
29031;DHT22;16122;50.236;11.734;2023-09-19T00:26:02;19.80;83.90
29031;DHT22;16122;50.236;11.734;2023-09-19T00:28:29;19.80;83.80
29031;DHT22;16122;50.236;11.734;2023-09-19T00:30:55;19.80;83.80
29031;DHT22;16122;50.236;11.734;2023-09-19T00:33:22;19.70;83.80
29031;DHT22;16122;50.236;11.734;2023-09-19T00:35:49;19.80;83.80
29031;DHT22;16122;50.236;11.734;2023-09-19T00:38:15;19.70;83.70
29031;DHT22;16122;50.236;11.734;2023-09-19T00:40:45;19.80;83.70
29031;DHT22;16122;50.236;11.734;2023-09-19T00:43:11;19.80;83.60
29031;DHT22;16122;50.236;11.734;2023-09-19T00:45:37;19.80;83.50
29031;DHT22;16122;50.236;11.734;2023-09-19T00:48:08;19.80;83.60
29031;DHT22;16122;50.236;11.734;2023-09-19T00:50:35;19.80;83.50
29031;DHT22;16122;50.236;11.734;2023-09-19T00:53:02;19.80;83.50
29031;DHT22;16122;50.236;11.734;2023-09-19T00:55:36;19.70;83.50
29031;DHT22;16122;50.236;11.734;2023-09-19T00:58:03;19.80;83.50
29031;DHT22;16122;50.236;11.734;2023-09-19T01:00:33;19.70;83.50
29031;DHT22;16122;50.236;11.734;2023-09-19T01:03:00;19.80;84.30
29031;DHT22;16122;50.236;11.734;2023-09-19T01:05:29;19.80;83.50
29031;DHT22;16122;50.236;11.734;2023-09-19T01:07:55;19.80;83.50
29031;DHT22;16122;50.236;11.734;2023-09-19T01:10:22;19.80;83.60
29031;DHT22;16122;50.236;11.734;2023-09-19T01:13:14;19.80;83.60
29031;DHT22;16122;50.236;11.734;2023-09-19T01:29:47;19.70;83.70
29031;DHT22;16122;50.236;11.734;2023-09-19T01:32:19;19.70;83.90
29031;DHT22;16122;50.236;11.734;2023-09-19T01:34:55;19.70;83.90
29031;DHT22;16122;50.236;11.734;2023-09-19T01:37:30;19.70;83.90
29031;DHT22;16122;50.236;11.734;2023-09-19T01:40:00;19.70;84.10
29031;DHT22;16122;50.236;11.734;2023-09-19T01:45:12;19.70;84.00
29031;DHT22;16122;50.236;11.734;2023-09-19T01:47:50;19.70;84.00
29031;DHT22;16122;50.236;11.734;2023-09-19T01:50:38;19.70;83.90
29031;DHT22;16122;50.236;11.734;2023-09-19T01:53:28;19.70;83.90
29031;DHT22;16122;50.236;11.734;2023-09-19T01:55:57;19.70;84.00
29031;DHT22;16122;50.236;11.734;2023-09-19T01:58:41;19.60;83.80
29031;DHT22;16122;50.236;11.734;2023-09-19T02:01:13;19.70;83.80
29031;DHT22;16122;50.236;11.734;2023-09-19T02:03:42;19.60;83.80
29031;DHT22;16122;50.236;11.734;2023-09-19T02:06:14;19.60;84.00
29031;DHT22;16122;50.236;11.734;2023-09-19T02:08:41;19.60;83.80
29031;DHT22;16122;50.236;11.734;2023-09-19T02:11:07;19.60;83.70
29031;DHT22;16122;50.236;11.734;2023-09-19T02:13:33;19.60;83.60
29031;DHT22;16122;50.236;11.734;2023-09-19T02:15:59;19.60;83.50
29031;DHT22;16122;50.236;11.734;2023-09-19T02:18:25;19.60;83.40
29031;DHT22;16122;50.236;11.734;2023-09-19T02:20:53;19.60;83.40
29031;DHT22;16122;50.236;11.734;2023-09-19T02:23:20;19.60;83.50
29031;DHT22;16122;50.236;11.734;2023-09-19T02:25:55;19.60;83.40
29031;DHT22;16122;50.236;11.734;2023-09-19T02:28:23;19.60;83.40
29031;DHT22;16122;50.236;11.734;2023-09-19T02:30:50;19.60;83.20
29031;DHT22;16122;50.236;11.734;2023-09-19T02:33:16;19.60;83.20
29031;DHT22;16122;50.236;11.734;2023-09-19T02:35:44;19.60;83.10
29031;DHT22;16122;50.236;11.734;2023-09-19T02:38:11;19.60;83.00
29031;DHT22;16122;50.236;11.734;2023-09-19T02:40:38;19.60;82.90
29031;DHT22;16122;50.236;11.734;2023-09-19T02:43:07;19.60;82.80
29031;DHT22;16122;50.236;11.734;2023-09-19T02:45:34;19.50;82.90
29031;DHT22;16122;50.236;11.734;2023-09-19T02:48:00;19.60;82.90
29031;DHT22;16122;50.236;11.734;2023-09-19T02:50:29;19.60;82.80
29031;DHT22;16122;50.236;11.734;2023-09-19T02:52:55;19.60;82.80
29031;DHT22;16122;50.236;11.734;2023-09-19T02:55:21;19.60;82.80
29031;DHT22;16122;50.236;11.734;2023-09-19T02:57:54;19.60;82.80
29031;DHT22;16122;50.236;11.734;2023-09-19T03:00:21;19.60;82.70
29031;DHT22;16122;50.236;11.734;2023-09-19T03:02:54;19.60;82.70
29031;DHT22;16122;50.236;11.734;2023-09-19T03:05:21;19.60;82.70
29031;DHT22;16122;50.236;11.734;2023-09-19T03:07:49;19.60;82.80
29031;DHT22;16122;50.236;11.734;2023-09-19T03:10:20;19.50;82.80
29031;DHT22;16122;50.236;11.734;2023-09-19T03:12:47;19.50;82.80
29031;DHT22;16122;50.236;11.734;2023-09-19T03:15:14;19.60;82.60
29031;DHT22;16122;50.236;11.734;2023-09-19T03:17:44;19.60;82.70
29031;DHT22;16122;50.236;11.734;2023-09-19T03:20:11;19.60;82.60
29031;DHT22;16122;50.236;11.734;2023-09-19T03:22:39;19.60;82.60
29031;DHT22;16122;50.236;11.734;2023-09-19T03:25:07;19.60;82.70
29031;DHT22;16122;50.236;11.734;2023-09-19T03:27:35;19.60;82.50
29031;DHT22;16122;50.236;11.734;2023-09-19T03:30:01;19.60;82.40
29031;DHT22;16122;50.236;11.734;2023-09-19T03:32:32;19.60;82.40
29031;DHT22;16122;50.236;11.734;2023-09-19T03:34:58;19.60;82.30
29031;DHT22;16122;50.236;11.734;2023-09-19T03:37:24;19.60;82.30
29031;DHT22;16122;50.236;11.734;2023-09-19T03:39:50;19.60;82.40
29031;DHT22;16122;50.236;11.734;2023-09-19T03:42:16;19.60;82.30
29031;DHT22;16122;50.236;11.734;2023-09-19T03:44:42;19.60;82.40
29031;DHT22;16122;50.236;11.734;2023-09-19T03:47:07;19.60;82.30
29031;DHT22;16122;50.236;11.734;2023-09-19T03:49:33;19.50;82.10
29031;DHT22;16122;50.236;11.734;2023-09-19T03:51:59;19.60;82.30
29031;DHT22;16122;50.236;11.734;2023-09-19T03:54:25;19.60;82.20
29031;DHT22;16122;50.236;11.734;2023-09-19T03:56:51;19.60;82.10
29031;DHT22;16122;50.236;11.734;2023-09-19T03:59:17;19.60;82.00
29031;DHT22;16122;50.236;11.734;2023-09-19T04:01:44;19.60;82.00
29031;DHT22;16122;50.236;11.734;2023-09-19T04:04:09;19.60;81.90
29031;DHT22;16122;50.236;11.734;2023-09-19T04:06:36;19.60;82.00
29031;DHT22;16122;50.236;11.734;2023-09-19T04:09:03;19.60;81.90
29031;DHT22;16122;50.236;11.734;2023-09-19T04:11:30;19.60;81.80
29031;DHT22;16122;50.236;11.734;2023-09-19T04:13:57;19.60;81.70
29031;DHT22;16122;50.236;11.734;2023-09-19T04:16:23;19.60;81.70
29031;DHT22;16122;50.236;11.734;2023-09-19T04:18:48;19.60;81.60
29031;DHT22;16122;50.236;11.734;2023-09-19T04:21:14;19.70;81.70
29031;DHT22;16122;50.236;11.734;2023-09-19T04:23:40;19.70;81.60
29031;DHT22;16122;50.236;11.734;2023-09-19T04:26:06;19.60;81.60
29031;DHT22;16122;50.236;11.734;2023-09-19T04:28:32;19.70;81.80
29031;DHT22;16122;50.236;11.734;2023-09-19T04:31:00;19.60;81.60
29031;DHT22;16122;50.236;11.734;2023-09-19T04:33:26;19.60;81.70
29031;DHT22;16122;50.236;11.734;2023-09-19T04:35:55;19.70;81.80
29031;DHT22;16122;50.236;11.734;2023-09-19T04:38:22;19.70;81.70
29031;DHT22;16122;50.236;11.734;2023-09-19T04:40:48;19.60;81.50
29031;DHT22;16122;50.236;11.734;2023-09-19T04:43:14;19.70;81.60
29031;DHT22;16122;50.236;11.734;2023-09-19T04:45:41;19.60;81.40
29031;DHT22;16122;50.236;11.734;2023-09-19T04:48:06;19.60;81.30
29031;DHT22;16122;50.236;11.734;2023-09-19T04:50:34;19.60;81.50
29031;DHT22;16122;50.236;11.734;2023-09-19T04:53:00;19.60;81.50
29031;DHT22;16122;50.236;11.734;2023-09-19T04:55:26;19.60;81.40
29031;DHT22;16122;50.236;11.734;2023-09-19T04:57:53;19.60;81.60
29031;DHT22;16122;50.236;11.734;2023-09-19T05:00:23;19.60;81.70
29031;DHT22;16122;50.236;11.734;2023-09-19T05:02:56;19.60;81.90
29031;DHT22;16122;50.236;11.734;2023-09-19T05:05:22;19.60;82.00
29031;DHT22;16122;50.236;11.734;2023-09-19T05:07:49;19.60;82.20
29031;DHT22;16122;50.236;11.734;2023-09-19T05:10:16;19.60;82.30
29031;DHT22;16122;50.236;11.734;2023-09-19T05:12:44;19.60;82.30
29031;DHT22;16122;50.236;11.734;2023-09-19T05:15:13;19.60;82.50
29031;DHT22;16122;50.236;11.734;2023-09-19T05:17:40;19.60;82.30
29031;DHT22;16122;50.236;11.734;2023-09-19T05:20:07;19.60;82.40
29031;DHT22;16122;50.236;11.734;2023-09-19T05:22:42;19.60;82.60
29031;DHT22;16122;50.236;11.734;2023-09-19T05:25:12;19.60;82.50
29031;DHT22;16122;50.236;11.734;2023-09-19T05:27:43;19.60;82.70
29031;DHT22;16122;50.236;11.734;2023-09-19T05:30:09;19.60;82.50
29031;DHT22;16122;50.236;11.734;2023-09-19T05:32:35;19.60;82.60
29031;DHT22;16122;50.236;11.734;2023-09-19T05:35:01;19.60;82.60
29031;DHT22;16122;50.236;11.734;2023-09-19T05:37:27;19.60;82.70
29031;DHT22;16122;50.236;11.734;2023-09-19T05:39:53;19.60;82.70
29031;DHT22;16122;50.236;11.734;2023-09-19T05:42:19;19.60;82.60
29031;DHT22;16122;50.236;11.734;2023-09-19T05:44:45;19.60;82.50
29031;DHT22;16122;50.236;11.734;2023-09-19T05:47:10;19.60;82.40
29031;DHT22;16122;50.236;11.734;2023-09-19T05:49:36;19.60;82.30
29031;DHT22;16122;50.236;11.734;2023-09-19T05:52:05;19.60;82.50
29031;DHT22;16122;50.236;11.734;2023-09-19T05:54:31;19.60;82.50
29031;DHT22;16122;50.236;11.734;2023-09-19T05:56:56;19.60;82.30
29031;DHT22;16122;50.236;11.734;2023-09-19T05:59:23;19.60;82.20
29031;DHT22;16122;50.236;11.734;2023-09-19T06:01:49;19.60;82.00
29031;DHT22;16122;50.236;11.734;2023-09-19T06:04:15;19.60;81.90
29031;DHT22;16122;50.236;11.734;2023-09-19T06:06:41;19.50;82.00
29031;DHT22;16122;50.236;11.734;2023-09-19T06:09:07;19.60;82.20
29031;DHT22;16122;50.236;11.734;2023-09-19T06:11:35;19.60;82.20
29031;DHT22;16122;50.236;11.734;2023-09-19T06:14:04;19.50;82.10
29031;DHT22;16122;50.236;11.734;2023-09-19T06:16:31;19.60;82.30
29031;DHT22;16122;50.236;11.734;2023-09-19T06:18:59;19.60;82.40
29031;DHT22;16122;50.236;11.734;2023-09-19T06:21:28;19.50;82.60
29031;DHT22;16122;50.236;11.734;2023-09-19T06:23:54;19.50;81.50
29031;DHT22;16122;50.236;11.734;2023-09-19T06:26:20;19.50;81.40
29031;DHT22;16122;50.236;11.734;2023-09-19T06:28:46;19.50;80.80
29031;DHT22;16122;50.236;11.734;2023-09-19T06:31:12;19.50;80.70
29031;DHT22;16122;50.236;11.734;2023-09-19T06:33:38;19.50;80.90
29031;DHT22;16122;50.236;11.734;2023-09-19T06:36:07;19.50;81.00
29031;DHT22;16122;50.236;11.734;2023-09-19T06:38:33;19.50;80.70
29031;DHT22;16122;50.236;11.734;2023-09-19T06:41:02;19.50;80.40
29031;DHT22;16122;50.236;11.734;2023-09-19T06:43:32;19.50;80.30
29031;DHT22;16122;50.236;11.734;2023-09-19T06:46:00;19.50;80.40
29031;DHT22;16122;50.236;11.734;2023-09-19T06:48:26;19.50;80.10
29031;DHT22;16122;50.236;11.734;2023-09-19T06:50:58;19.60;79.90
29031;DHT22;16122;50.236;11.734;2023-09-19T06:53:31;19.50;79.80
29031;DHT22;16122;50.236;11.734;2023-09-19T06:55:58;19.50;80.00
29031;DHT22;16122;50.236;11.734;2023-09-19T06:58:23;19.60;79.80
29031;DHT22;16122;50.236;11.734;2023-09-19T07:00:49;19.50;78.50
29031;DHT22;16122;50.236;11.734;2023-09-19T07:03:18;19.50;78.30
29031;DHT22;16122;50.236;11.734;2023-09-19T07:05:48;19.50;78.60
29031;DHT22;16122;50.236;11.734;2023-09-19T07:08:14;19.60;78.30
29031;DHT22;16122;50.236;11.734;2023-09-19T07:10:41;19.50;77.80
29031;DHT22;16122;50.236;11.734;2023-09-19T07:13:13;19.50;78.10
29031;DHT22;16122;50.236;11.734;2023-09-19T07:15:39;19.50;77.30
29031;DHT22;16122;50.236;11.734;2023-09-19T07:18:07;19.50;77.60
29031;DHT22;16122;50.236;11.734;2023-09-19T07:20:36;19.50;77.60
29031;DHT22;16122;50.236;11.734;2023-09-19T07:23:03;19.60;77.90
29031;DHT22;16122;50.236;11.734;2023-09-19T07:25:30;19.50;77.60
29031;DHT22;16122;50.236;11.734;2023-09-19T07:27:57;19.50;78.00
29031;DHT22;16122;50.236;11.734;2023-09-19T07:30:26;19.60;77.80
29031;DHT22;16122;50.236;11.734;2023-09-19T07:32:52;19.50;77.30
29031;DHT22;16122;50.236;11.734;2023-09-19T07:35:18;19.60;77.20
29031;DHT22;16122;50.236;11.734;2023-09-19T07:37:47;19.50;77.00
29031;DHT22;16122;50.236;11.734;2023-09-19T07:40:17;19.60;77.30
29031;DHT22;16122;50.236;11.734;2023-09-19T07:42:43;19.60;77.10
29031;DHT22;16122;50.236;11.734;2023-09-19T07:45:10;19.60;76.80
29031;DHT22;16122;50.236;11.734;2023-09-19T07:47:47;19.60;76.30
29031;DHT22;16122;50.236;11.734;2023-09-19T07:50:14;19.50;76.00
29031;DHT22;16122;50.236;11.734;2023-09-19T07:52:42;19.50;75.60
29031;DHT22;16122;50.236;11.734;2023-09-19T07:55:08;19.50;75.10
29031;DHT22;16122;50.236;11.734;2023-09-19T07:57:37;19.50;74.90
29031;DHT22;16122;50.236;11.734;2023-09-19T08:00:03;19.50;74.60
29031;DHT22;16122;50.236;11.734;2023-09-19T08:02:37;19.60;75.00
29031;DHT22;16122;50.236;11.734;2023-09-19T08:05:04;19.50;74.60
29031;DHT22;16122;50.236;11.734;2023-09-19T08:07:39;19.60;75.20
29031;DHT22;16122;50.236;11.734;2023-09-19T08:10:06;19.50;74.50
29031;DHT22;16122;50.236;11.734;2023-09-19T08:12:42;19.50;74.80
29031;DHT22;16122;50.236;11.734;2023-09-19T08:15:20;19.60;75.30
29031;DHT22;16122;50.236;11.734;2023-09-19T08:17:49;19.60;74.70
29031;DHT22;16122;50.236;11.734;2023-09-19T08:20:16;19.60;75.00
29031;DHT22;16122;50.236;11.734;2023-09-19T08:22:53;19.60;75.10
29031;DHT22;16122;50.236;11.734;2023-09-19T08:25:23;19.60;75.30
29031;DHT22;16122;50.236;11.734;2023-09-19T08:27:51;19.60;75.30
29031;DHT22;16122;50.236;11.734;2023-09-19T08:30:21;19.60;75.10
29031;DHT22;16122;50.236;11.734;2023-09-19T08:33:02;19.60;74.60
29031;DHT22;16122;50.236;11.734;2023-09-19T08:35:31;19.70;74.70
29031;DHT22;16122;50.236;11.734;2023-09-19T08:37:57;19.60;74.40
29031;DHT22;16122;50.236;11.734;2023-09-19T08:40:23;19.70;74.30
29031;DHT22;16122;50.236;11.734;2023-09-19T08:42:55;19.60;74.40
29031;DHT22;16122;50.236;11.734;2023-09-19T08:45:22;19.60;74.50
29031;DHT22;16122;50.236;11.734;2023-09-19T08:51:07;19.60;73.80
29031;DHT22;16122;50.236;11.734;2023-09-19T08:56:17;19.60;74.00
29031;DHT22;16122;50.236;11.734;2023-09-19T08:58:57;19.70;74.20
29031;DHT22;16122;50.236;11.734;2023-09-19T09:01:28;19.70;74.30
29031;DHT22;16122;50.236;11.734;2023-09-19T09:03:54;19.70;74.10
29031;DHT22;16122;50.236;11.734;2023-09-19T09:06:21;19.70;74.40
29031;DHT22;16122;50.236;11.734;2023-09-19T09:08:47;19.70;73.60
29031;DHT22;16122;50.236;11.734;2023-09-19T09:11:14;19.70;73.50
29031;DHT22;16122;50.236;11.734;2023-09-19T09:13:45;19.70;72.90
29031;DHT22;16122;50.236;11.734;2023-09-19T09:16:12;19.80;73.20
29031;DHT22;16122;50.236;11.734;2023-09-19T09:18:39;19.70;72.20
29031;DHT22;16122;50.236;11.734;2023-09-19T09:21:05;19.70;72.60
29031;DHT22;16122;50.236;11.734;2023-09-19T09:23:31;19.70;72.50
29031;DHT22;16122;50.236;11.734;2023-09-19T09:25:58;19.70;72.40
29031;DHT22;16122;50.236;11.734;2023-09-19T09:28:29;19.70;72.70
29031;DHT22;16122;50.236;11.734;2023-09-19T09:30:57;19.70;72.40
29031;DHT22;16122;50.236;11.734;2023-09-19T09:33:34;19.70;71.90
29031;DHT22;16122;50.236;11.734;2023-09-19T09:36:01;19.70;71.60
29031;DHT22;16122;50.236;11.734;2023-09-19T09:38:47;19.70;71.30
29031;DHT22;16122;50.236;11.734;2023-09-19T09:41:36;19.70;71.50
29031;DHT22;16122;50.236;11.734;2023-09-19T09:44:17;19.70;71.50
29031;DHT22;16122;50.236;11.734;2023-09-19T09:46:45;19.70;71.90
29031;DHT22;16122;50.236;11.734;2023-09-19T09:49:24;19.70;71.70
29031;DHT22;16122;50.236;11.734;2023-09-19T09:54:29;19.70;71.10
29031;DHT22;16122;50.236;11.734;2023-09-19T09:57:11;19.70;71.30
29031;DHT22;16122;50.236;11.734;2023-09-19T09:59:46;19.70;71.50
29031;DHT22;16122;50.236;11.734;2023-09-19T10:02:17;19.70;71.50
29031;DHT22;16122;50.236;11.734;2023-09-19T10:04:50;19.70;71.40
29031;DHT22;16122;50.236;11.734;2023-09-19T10:07:29;19.70;72.10
29031;DHT22;16122;50.236;11.734;2023-09-19T10:10:05;19.70;71.80
29031;DHT22;16122;50.236;11.734;2023-09-19T10:12:48;19.70;71.60
29031;DHT22;16122;50.236;11.734;2023-09-19T10:15:18;19.70;72.40
29031;DHT22;16122;50.236;11.734;2023-09-19T10:17:47;19.80;72.00
29031;DHT22;16122;50.236;11.734;2023-09-19T10:20:15;19.70;70.90
29031;DHT22;16122;50.236;11.734;2023-09-19T10:23:10;19.70;71.20
29031;DHT22;16122;50.236;11.734;2023-09-19T10:25:41;19.70;70.70
29031;DHT22;16122;50.236;11.734;2023-09-19T10:28:09;19.70;70.50
29031;DHT22;16122;50.236;11.734;2023-09-19T10:30:49;19.70;71.50
29031;DHT22;16122;50.236;11.734;2023-09-19T10:33:20;19.70;71.20
29031;DHT22;16122;50.236;11.734;2023-09-19T10:35:49;19.70;71.10
29031;DHT22;16122;50.236;11.734;2023-09-19T10:38:19;19.80;71.80
29031;DHT22;16122;50.236;11.734;2023-09-19T10:40:50;19.70;71.90
29031;DHT22;16122;50.236;11.734;2023-09-19T10:43:18;19.70;71.70
29031;DHT22;16122;50.236;11.734;2023-09-19T10:45:48;19.70;71.20
29031;DHT22;16122;50.236;11.734;2023-09-19T10:48:16;19.80;71.80
29031;DHT22;16122;50.236;11.734;2023-09-19T10:51:07;19.80;72.10
29031;DHT22;16122;50.236;11.734;2023-09-19T10:53:55;19.80;70.50
29031;DHT22;16122;50.236;11.734;2023-09-19T10:59:09;19.80;71.50
29031;DHT22;16122;50.236;11.734;2023-09-19T11:07:12;19.80;68.40
29031;DHT22;16122;50.236;11.734;2023-09-19T11:09:52;19.80;68.00
29031;DHT22;16122;50.236;11.734;2023-09-19T11:14:57;19.80;67.00
29031;DHT22;16122;50.236;11.734;2023-09-19T11:17:37;19.80;66.20
29031;DHT22;16122;50.236;11.734;2023-09-19T11:30:41;19.90;65.40
29031;DHT22;16122;50.236;11.734;2023-09-19T11:33:28;19.80;65.20
29031;DHT22;16122;50.236;11.734;2023-09-19T11:36:00;19.80;65.30
29031;DHT22;16122;50.236;11.734;2023-09-19T11:46:52;19.90;65.40
29031;DHT22;16122;50.236;11.734;2023-09-19T11:49:21;19.90;64.50
29031;DHT22;16122;50.236;11.734;2023-09-19T11:51:52;19.90;64.10
29031;DHT22;16122;50.236;11.734;2023-09-19T11:54:18;19.90;64.10
29031;DHT22;16122;50.236;11.734;2023-09-19T11:56:49;19.90;62.80
29031;DHT22;16122;50.236;11.734;2023-09-19T11:59:23;19.90;63.20
29031;DHT22;16122;50.236;11.734;2023-09-19T12:01:56;19.90;62.70
29031;DHT22;16122;50.236;11.734;2023-09-19T12:04:41;19.90;62.20
29031;DHT22;16122;50.236;11.734;2023-09-19T12:07:13;19.90;62.80
29031;DHT22;16122;50.236;11.734;2023-09-19T12:10:02;19.90;62.70
29031;DHT22;16122;50.236;11.734;2023-09-19T12:12:29;20.00;62.60
29031;DHT22;16122;50.236;11.734;2023-09-19T12:14:59;19.90;62.80
29031;DHT22;16122;50.236;11.734;2023-09-19T12:17:41;19.90;62.80
29031;DHT22;16122;50.236;11.734;2023-09-19T12:20:10;19.90;62.90
29031;DHT22;16122;50.236;11.734;2023-09-19T12:22:44;20.00;61.90
29031;DHT22;16122;50.236;11.734;2023-09-19T12:25:11;19.90;61.80
29031;DHT22;16122;50.236;11.734;2023-09-19T12:27:48;19.90;62.00
29031;DHT22;16122;50.236;11.734;2023-09-19T12:30:18;19.90;62.90
29031;DHT22;16122;50.236;11.734;2023-09-19T12:32:46;19.90;62.60
29031;DHT22;16122;50.236;11.734;2023-09-19T12:35:31;20.00;62.90
29031;DHT22;16122;50.236;11.734;2023-09-19T12:38:00;19.90;62.10
29031;DHT22;16122;50.236;11.734;2023-09-19T12:40:27;20.00;62.30
29031;DHT22;16122;50.236;11.734;2023-09-19T12:42:59;20.00;62.80
29031;DHT22;16122;50.236;11.734;2023-09-19T12:45:25;20.00;62.10
29031;DHT22;16122;50.236;11.734;2023-09-19T12:48:20;20.00;61.30
29031;DHT22;16122;50.236;11.734;2023-09-19T12:53:33;20.00;61.20
29031;DHT22;16122;50.236;11.734;2023-09-19T12:56:01;19.90;61.70
29031;DHT22;16122;50.236;11.734;2023-09-19T12:58:28;19.90;61.00
29031;DHT22;16122;50.236;11.734;2023-09-19T13:00:56;19.90;61.50
29031;DHT22;16122;50.236;11.734;2023-09-19T13:03:26;19.90;61.80
29031;DHT22;16122;50.236;11.734;2023-09-19T13:06:01;19.90;61.50
29031;DHT22;16122;50.236;11.734;2023-09-19T13:08:36;19.90;61.30
29031;DHT22;16122;50.236;11.734;2023-09-19T13:13:49;19.90;60.30
29031;DHT22;16122;50.236;11.734;2023-09-19T13:16:20;19.90;60.40
29031;DHT22;16122;50.236;11.734;2023-09-19T13:18:52;20.00;61.00
29031;DHT22;16122;50.236;11.734;2023-09-19T13:21:31;20.00;59.70
29031;DHT22;16122;50.236;11.734;2023-09-19T13:26:44;20.00;60.60
29031;DHT22;16122;50.236;11.734;2023-09-19T13:29:10;20.00;60.50
29031;DHT22;16122;50.236;11.734;2023-09-19T13:31:35;20.00;59.50
29031;DHT22;16122;50.236;11.734;2023-09-19T13:34:07;20.00;59.10
29031;DHT22;16122;50.236;11.734;2023-09-19T13:36:33;20.00;59.80
29031;DHT22;16122;50.236;11.734;2023-09-19T13:38:59;20.00;59.70
29031;DHT22;16122;50.236;11.734;2023-09-19T13:41:26;20.00;59.60
29031;DHT22;16122;50.236;11.734;2023-09-19T13:43:52;20.00;58.90
29031;DHT22;16122;50.236;11.734;2023-09-19T13:46:19;20.00;58.80
29031;DHT22;16122;50.236;11.734;2023-09-19T13:48:51;20.00;58.40
29031;DHT22;16122;50.236;11.734;2023-09-19T13:51:21;20.00;58.30
29031;DHT22;16122;50.236;11.734;2023-09-19T13:53:49;20.00;57.90
29031;DHT22;16122;50.236;11.734;2023-09-19T13:56:16;20.00;59.10
29031;DHT22;16122;50.236;11.734;2023-09-19T13:58:42;20.00;58.80
29031;DHT22;16122;50.236;11.734;2023-09-19T14:01:08;20.00;59.00
29031;DHT22;16122;50.236;11.734;2023-09-19T14:03:41;20.00;57.70
29031;DHT22;16122;50.236;11.734;2023-09-19T14:06:13;20.00;58.40
29031;DHT22;16122;50.236;11.734;2023-09-19T14:08:39;20.00;58.30
29031;DHT22;16122;50.236;11.734;2023-09-19T14:11:08;20.00;58.90
29031;DHT22;16122;50.236;11.734;2023-09-19T14:13:34;20.00;58.50
29031;DHT22;16122;50.236;11.734;2023-09-19T14:16:04;20.00;58.90
29031;DHT22;16122;50.236;11.734;2023-09-19T14:18:34;20.00;56.90
29031;DHT22;16122;50.236;11.734;2023-09-19T14:21:07;19.90;56.30
29031;DHT22;16122;50.236;11.734;2023-09-19T14:23:40;19.90;57.30
29031;DHT22;16122;50.236;11.734;2023-09-19T14:26:08;19.90;57.40
29031;DHT22;16122;50.236;11.734;2023-09-19T14:28:34;19.90;57.30
29031;DHT22;16122;50.236;11.734;2023-09-19T14:31:05;20.00;57.90
29031;DHT22;16122;50.236;11.734;2023-09-19T14:33:31;20.00;57.50
29031;DHT22;16122;50.236;11.734;2023-09-19T14:35:57;20.00;58.20
29031;DHT22;16122;50.236;11.734;2023-09-19T14:38:23;20.00;58.00
29031;DHT22;16122;50.236;11.734;2023-09-19T14:40:49;20.00;58.60
29031;DHT22;16122;50.236;11.734;2023-09-19T14:43:24;20.00;57.70
29031;DHT22;16122;50.236;11.734;2023-09-19T14:45:49;20.00;58.00
29031;DHT22;16122;50.236;11.734;2023-09-19T14:48:15;20.00;57.60
29031;DHT22;16122;50.236;11.734;2023-09-19T14:50:41;20.00;58.30
29031;DHT22;16122;50.236;11.734;2023-09-19T14:53:07;20.00;57.00
29031;DHT22;16122;50.236;11.734;2023-09-19T14:55:39;20.00;57.60
29031;DHT22;16122;50.236;11.734;2023-09-19T14:58:07;19.90;57.20
29031;DHT22;16122;50.236;11.734;2023-09-19T15:00:33;19.90;57.70
29031;DHT22;16122;50.236;11.734;2023-09-19T15:03:00;19.90;58.10
29031;DHT22;16122;50.236;11.734;2023-09-19T15:05:27;20.00;58.10
29031;DHT22;16122;50.236;11.734;2023-09-19T15:07:55;20.00;57.60
29031;DHT22;16122;50.236;11.734;2023-09-19T15:10:23;19.90;56.60
29031;DHT22;16122;50.236;11.734;2023-09-19T15:12:48;19.90;56.90
29031;DHT22;16122;50.236;11.734;2023-09-19T15:15:14;19.90;57.70
29031;DHT22;16122;50.236;11.734;2023-09-19T15:17:40;19.90;57.20
29031;DHT22;16122;50.236;11.734;2023-09-19T15:20:07;19.90;57.20
29031;DHT22;16122;50.236;11.734;2023-09-19T15:22:36;19.90;57.60
29031;DHT22;16122;50.236;11.734;2023-09-19T15:25:02;19.90;57.90
29031;DHT22;16122;50.236;11.734;2023-09-19T15:27:29;19.90;58.00
29031;DHT22;16122;50.236;11.734;2023-09-19T15:29:57;19.90;58.40
29031;DHT22;16122;50.236;11.734;2023-09-19T15:32:26;19.90;58.00
29031;DHT22;16122;50.236;11.734;2023-09-19T15:34:52;19.90;57.20
29031;DHT22;16122;50.236;11.734;2023-09-19T15:37:17;19.90;57.00
29031;DHT22;16122;50.236;11.734;2023-09-19T15:39:44;19.90;56.80
29031;DHT22;16122;50.236;11.734;2023-09-19T15:42:11;19.90;58.00
29031;DHT22;16122;50.236;11.734;2023-09-19T15:44:37;19.90;56.90
29031;DHT22;16122;50.236;11.734;2023-09-19T15:47:04;19.90;58.00
29031;DHT22;16122;50.236;11.734;2023-09-19T15:49:30;19.90;57.80
29031;DHT22;16122;50.236;11.734;2023-09-19T15:51:56;19.90;57.50
29031;DHT22;16122;50.236;11.734;2023-09-19T15:54:22;19.90;58.70
29031;DHT22;16122;50.236;11.734;2023-09-19T15:56:50;19.90;57.60
29031;DHT22;16122;50.236;11.734;2023-09-19T15:59:17;19.90;57.90
29031;DHT22;16122;50.236;11.734;2023-09-19T16:01:43;19.90;57.30
29031;DHT22;16122;50.236;11.734;2023-09-19T16:04:09;19.80;57.30
29031;DHT22;16122;50.236;11.734;2023-09-19T16:06:36;19.80;57.30
29031;DHT22;16122;50.236;11.734;2023-09-19T16:09:04;19.80;57.20
29031;DHT22;16122;50.236;11.734;2023-09-19T16:11:34;19.80;57.10
29031;DHT22;16122;50.236;11.734;2023-09-19T16:14:03;19.80;57.40
29031;DHT22;16122;50.236;11.734;2023-09-19T16:16:33;19.80;57.00
29031;DHT22;16122;50.236;11.734;2023-09-19T16:19:01;19.80;56.90
29031;DHT22;16122;50.236;11.734;2023-09-19T16:21:30;19.80;56.70
29031;DHT22;16122;50.236;11.734;2023-09-19T16:23:58;19.70;56.50
29031;DHT22;16122;50.236;11.734;2023-09-19T16:26:25;19.70;56.70
29031;DHT22;16122;50.236;11.734;2023-09-19T16:28:53;19.70;57.00
29031;DHT22;16122;50.236;11.734;2023-09-19T16:31:20;19.70;57.30